createdAt,value
2017-04-26T00:00:28.877Z,80
2017-04-26T00:01:28.891Z,84
2017-04-26T00:02:28.940Z,84
2017-04-26T00:03:28.948Z,84
2017-04-26T00:04:28.905Z,80
2017-04-26T00:05:28.647Z,80
2017-04-26T00:06:29.020Z,84
2017-04-26T00:07:28.613Z,84
2017-04-26T00:08:28.936Z,80
2017-04-26T00:09:28.933Z,80
2017-04-26T00:10:28.629Z,84
2017-04-26T00:11:28.638Z,88
2017-04-26T00:12:29.054Z,80
2017-04-26T00:13:28.964Z,84
2017-04-26T00:14:28.656Z,80
2017-04-26T00:15:28.974Z,84
2017-04-26T00:16:28.980Z,84
2017-04-26T00:17:29.034Z,84
2017-04-26T00:18:28.077Z,84
2017-04-26T00:19:28.689Z,84
2017-04-26T00:20:29.107Z,84
2017-04-26T00:21:28.752Z,84
2017-04-26T00:22:28.447Z,84
2017-04-26T00:23:28.407Z,84
2017-04-26T00:24:28.771Z,84
2017-04-26T00:25:28.775Z,84
2017-04-26T00:32:02.057Z,84
2017-04-26T00:33:01.804Z,84
2017-04-26T00:34:02.069Z,80
2017-04-26T00:35:01.461Z,84
2017-04-26T00:36:02.084Z,84
2017-04-26T00:37:01.875Z,84
2017-04-26T00:38:01.785Z,84
2017-04-26T00:39:02.102Z,88
2017-04-26T00:40:02.110Z,84
2017-04-26T00:41:01.803Z,84
2017-04-26T00:42:01.866Z,84
2017-04-26T00:43:01.555Z,80
2017-04-26T00:44:01.877Z,84
2017-04-26T00:45:02.208Z,84
2017-04-26T00:46:02.167Z,84
2017-04-26T00:47:02.203Z,84
2017-04-26T00:48:01.881Z,84
2017-04-26T00:49:01.870Z,84
2017-04-26T00:50:01.606Z,84
2017-04-26T00:51:02.178Z,84
2017-04-26T00:52:02.190Z,84
2017-04-26T00:53:02.203Z,80
2017-04-26T00:54:01.941Z,84
2017-04-26T00:55:02.229Z,84
2017-04-26T00:56:01.951Z,84
2017-04-26T00:57:01.598Z,84
2017-04-26T00:58:01.919Z,80
2017-04-26T00:59:02.282Z,84
2017-04-26T01:00:02.249Z,84
2017-04-26T01:01:01.943Z,84
2017-04-26T01:02:02.038Z,84
2017-04-26T01:03:01.948Z,84
2017-04-26T01:04:02.285Z,84
2017-04-26T01:05:02.272Z,80
2017-04-26T01:06:02.375Z,84
2017-04-26T01:07:02.278Z,84
2017-04-26T01:08:01.994Z,84
2017-04-26T01:09:02.294Z,84
2017-04-26T01:10:02.352Z,84
2017-04-26T01:11:02.351Z,84
2017-04-26T01:12:01.743Z,84
2017-04-26T01:13:02.319Z,84
2017-04-26T01:14:02.371Z,84
2017-04-26T01:15:02.373Z,84
2017-04-26T01:16:01.758Z,84
2017-04-26T01:17:02.074Z,84
2017-04-26T01:18:02.349Z,84
2017-04-26T01:19:02.397Z,84
2017-04-26T01:20:02.090Z,84
2017-04-26T01:21:02.048Z,84
2017-04-26T01:22:02.201Z,84
2017-04-26T01:23:01.746Z,84
2017-04-26T01:24:02.379Z,84
2017-04-26T01:25:02.072Z,84
2017-04-26T01:26:02.391Z,84
2017-04-26T01:27:02.450Z,84
2017-04-26T01:28:02.449Z,84
2017-04-26T01:29:02.142Z,84
2017-04-26T01:30:02.528Z,84
2017-04-26T01:31:02.520Z,84
2017-04-26T01:32:02.139Z,84
2017-04-26T01:33:02.482Z,84
2017-04-26T01:34:02.451Z,84
2017-04-26T01:35:02.141Z,84
2017-04-26T01:36:02.474Z,84
2017-04-26T01:37:02.503Z,84
2017-04-26T01:38:01.848Z,84
2017-04-26T01:39:01.906Z,84
2017-04-26T01:40:02.533Z,84
2017-04-26T01:41:01.600Z,84
2017-04-26T01:42:02.481Z,84
2017-04-26T01:43:01.917Z,84
2017-04-26T01:44:02.508Z,84
2017-04-26T01:45:02.241Z,84
2017-04-26T01:46:02.296Z,84
2017-04-26T01:47:02.636Z,84
2017-04-26T01:48:01.921Z,84
2017-04-26T01:49:02.222Z,84
2017-04-26T01:50:02.229Z,84
2017-04-26T01:51:02.585Z,84
2017-04-26T01:52:02.300Z,84
2017-04-26T01:53:02.559Z,84
2017-04-26T01:54:02.564Z,84
2017-04-26T01:55:02.560Z,84
2017-04-26T01:56:02.303Z,84
2017-04-26T01:57:02.617Z,84
2017-04-26T01:58:02.642Z,84
2017-04-26T01:59:02.027Z,84
2017-04-26T02:00:02.602Z,84
2017-04-26T02:01:02.700Z,84
2017-04-26T02:02:02.294Z,84
2017-04-26T02:03:02.315Z,84
2017-04-26T02:04:02.377Z,84
2017-04-26T02:05:02.314Z,84
2017-04-26T02:06:02.628Z,84
2017-04-26T02:07:02.634Z,84
2017-04-26T02:08:02.990Z,0
2017-04-26T02:09:02.707Z,0
2017-04-26T02:10:02.678Z,0
2017-04-26T02:11:02.657Z,0
2017-04-26T02:12:02.729Z,0
2017-04-26T02:13:02.719Z,0
2017-04-26T02:14:02.365Z,0
2017-04-26T02:15:02.420Z,0
2017-04-26T02:16:02.699Z,0
2017-04-26T02:17:02.742Z,0
2017-04-26T02:18:02.438Z,0
2017-04-26T02:19:02.087Z,0
2017-04-26T02:20:02.709Z,0
2017-04-26T02:21:02.813Z,0
2017-04-26T02:22:02.721Z,0
2017-04-26T02:23:02.416Z,0
2017-04-26T02:24:02.480Z,0
2017-04-26T02:25:02.430Z,0
2017-04-26T02:26:02.743Z,0
2017-04-26T02:27:02.751Z,0
2017-04-26T02:28:02.762Z,0
2017-04-26T02:29:02.817Z,0
2017-04-26T02:30:02.479Z,0
2017-04-26T02:31:02.462Z,0
2017-04-26T02:32:02.521Z,0
2017-04-26T02:33:02.843Z,0
2017-04-26T02:34:02.894Z,0
2017-04-26T02:35:02.495Z,0
2017-04-26T02:36:02.495Z,0
2017-04-26T02:37:02.859Z,0
2017-04-26T02:38:03.171Z,0
2017-04-26T02:39:02.826Z,0
2017-04-26T02:40:02.547Z,0
2017-04-26T02:41:02.575Z,0
2017-04-26T02:42:02.224Z,0
2017-04-26T02:43:02.853Z,0
2017-04-26T02:44:02.957Z,0
2017-04-26T02:45:02.868Z,0
2017-04-26T02:46:02.923Z,0
2017-04-26T02:47:02.568Z,0
2017-04-26T02:48:02.881Z,0
2017-04-26T02:49:02.891Z,0
2017-04-26T02:50:02.896Z,0
2017-04-26T02:51:02.970Z,0
2017-04-26T02:52:02.643Z,0
2017-04-26T02:53:02.609Z,0
2017-04-26T02:54:02.919Z,0
2017-04-26T02:55:02.981Z,0
2017-04-26T02:56:02.360Z,0
2017-04-26T02:57:02.419Z,0
2017-04-26T02:58:02.637Z,0
2017-04-26T02:59:02.646Z,0
2017-04-26T03:00:02.960Z,0
2017-04-26T03:01:02.959Z,0
2017-04-26T03:02:02.400Z,0
2017-04-26T03:03:02.971Z,0
2017-04-26T03:04:03.405Z,0
2017-04-26T03:05:02.994Z,0
2017-04-26T03:06:02.699Z,0
2017-04-26T03:07:02.997Z,0
2017-04-26T03:08:03.012Z,0
2017-04-26T03:09:02.543Z,0
2017-04-26T03:10:03.025Z,0
2017-04-26T03:11:03.022Z,0
2017-04-26T03:12:03.033Z,0
2017-04-26T03:13:02.728Z,0
2017-04-26T03:14:03.046Z,0
2017-04-26T03:15:03.101Z,0
2017-04-26T03:16:03.063Z,0
2017-04-26T03:17:03.118Z,0
2017-04-26T03:18:03.128Z,0
2017-04-26T03:19:03.082Z,0
2017-04-26T03:20:02.459Z,0
2017-04-26T03:21:03.142Z,0
2017-04-26T03:22:02.874Z,0
2017-04-26T03:23:03.105Z,0
2017-04-26T03:24:03.115Z,0
2017-04-26T03:25:02.900Z,0
2017-04-26T03:26:02.810Z,0
2017-04-26T03:27:03.122Z,0
2017-04-26T03:28:02.827Z,0
2017-04-26T03:29:02.893Z,0
2017-04-26T03:30:03.148Z,0
2017-04-26T03:31:03.260Z,0
2017-04-26T03:32:03.212Z,0
2017-04-26T03:33:03.167Z,0
2017-04-26T03:34:03.271Z,0
2017-04-26T03:35:03.181Z,0
2017-04-26T03:36:03.185Z,0
2017-04-26T03:37:02.565Z,0
2017-04-26T03:38:03.196Z,0
2017-04-26T03:39:03.212Z,0
2017-04-26T03:40:02.947Z,0
2017-04-26T03:41:02.903Z,0
2017-04-26T03:42:02.963Z,0
2017-04-26T03:43:03.336Z,0
2017-04-26T03:44:03.335Z,0
2017-04-26T03:45:03.291Z,0
2017-04-26T03:46:02.935Z,0
2017-04-26T03:47:03.041Z,0
2017-04-26T03:48:02.954Z,0
2017-04-26T03:49:03.323Z,0
2017-04-26T03:50:03.327Z,0
2017-04-26T03:51:03.277Z,0
2017-04-26T03:52:03.084Z,4
2017-04-26T03:53:03.292Z,4
2017-04-26T03:54:03.345Z,4
2017-04-26T03:55:02.992Z,4
2017-04-26T03:56:03.047Z,0
2017-04-26T03:57:03.008Z,4
2017-04-26T03:58:03.373Z,4
2017-04-26T03:59:03.018Z,4
2017-04-26T04:00:03.331Z,4
2017-04-26T04:01:02.714Z,4
2017-04-26T04:02:03.084Z,4
2017-04-26T04:03:03.348Z,8
2017-04-26T04:04:03.350Z,8
2017-04-26T04:05:03.454Z,8
2017-04-26T04:06:03.376Z,8
2017-04-26T04:07:03.429Z,12
2017-04-26T04:08:02.812Z,8
2017-04-26T04:09:03.397Z,8
2017-04-26T04:10:03.496Z,8
2017-04-26T04:11:03.405Z,8
2017-04-26T04:12:03.408Z,8
2017-04-26T04:13:03.104Z,8
2017-04-26T04:14:03.209Z,12
2017-04-26T04:15:03.167Z,12
2017-04-26T04:16:03.445Z,12
2017-04-26T04:17:03.490Z,12
2017-04-26T04:18:03.494Z,16
2017-04-26T04:19:03.149Z,16
2017-04-26T04:20:03.195Z,16
2017-04-26T04:21:03.465Z,20
2017-04-26T04:22:03.468Z,20
2017-04-26T04:23:03.473Z,24
2017-04-26T04:24:03.168Z,24
2017-04-26T04:25:02.873Z,32
2017-04-26T04:26:03.541Z,32
2017-04-26T04:27:03.550Z,32
2017-04-26T04:28:03.503Z,32
2017-04-26T04:29:02.890Z,36
2017-04-26T04:30:03.517Z,32
2017-04-26T04:31:03.216Z,32
2017-04-26T04:32:03.630Z,36
2017-04-26T04:33:03.584Z,36
2017-04-26T04:34:03.543Z,36
2017-04-26T04:35:03.555Z,36
2017-04-26T04:36:03.552Z,36
2017-04-26T04:37:03.562Z,40
2017-04-26T04:38:03.614Z,40
2017-04-26T04:39:03.573Z,40
2017-04-26T04:40:03.266Z,44
2017-04-26T04:41:03.635Z,44
2017-04-26T04:42:03.338Z,48
2017-04-26T04:43:03.654Z,48
2017-04-26T04:44:03.603Z,48
2017-04-26T04:45:03.665Z,52
2017-04-26T04:46:03.304Z,48
2017-04-26T04:47:03.671Z,48
2017-04-26T04:48:03.422Z,48
2017-04-26T04:49:03.634Z,56
2017-04-26T04:50:03.643Z,64
2017-04-26T04:51:03.381Z,72
2017-04-26T04:52:03.034Z,88
2017-04-26T04:53:03.401Z,100
2017-04-26T04:54:03.718Z,108
2017-04-26T04:55:03.677Z,108
2017-04-26T04:56:03.680Z,112
2017-04-26T04:57:03.724Z,120
2017-04-26T04:58:03.695Z,116
2017-04-26T04:59:03.744Z,112
2017-04-26T05:00:03.444Z,108
2017-04-26T05:01:03.707Z,104
2017-04-26T05:02:03.454Z,124
2017-04-26T05:03:03.719Z,148
2017-04-26T05:04:03.728Z,180
2017-04-26T05:05:03.522Z,184
2017-04-26T05:06:03.532Z,156
2017-04-26T05:07:03.484Z,140
2017-04-26T05:08:03.754Z,140
2017-04-26T05:09:03.804Z,136
2017-04-26T05:10:03.510Z,132
2017-04-26T05:11:03.457Z,124
2017-04-26T05:12:03.828Z,128
2017-04-26T05:13:03.792Z,148
2017-04-26T05:14:03.837Z,156
2017-04-26T05:15:03.799Z,156
2017-04-26T05:16:03.490Z,172
2017-04-26T05:17:03.496Z,180
2017-04-26T05:18:03.551Z,176
2017-04-26T05:19:03.252Z,172
2017-04-26T05:20:03.202Z,164
2017-04-26T05:21:03.832Z,160
2017-04-26T05:22:03.836Z,164
2017-04-26T05:23:03.568Z,176
2017-04-26T05:24:03.900Z,188
2017-04-26T05:25:03.862Z,204
2017-04-26T05:26:03.913Z,232
2017-04-26T05:27:03.567Z,260
2017-04-26T05:28:03.568Z,300
2017-04-26T05:29:03.625Z,384
2017-04-26T05:30:03.889Z,476
2017-04-26T05:31:03.891Z,544
2017-04-26T05:32:03.901Z,596
2017-04-26T05:33:03.345Z,580
2017-04-26T05:34:03.655Z,556
2017-04-26T05:35:03.610Z,556
2017-04-26T05:36:03.926Z,572
2017-04-26T05:37:03.933Z,588
2017-04-26T05:38:03.940Z,596
2017-04-26T05:39:03.636Z,616
2017-04-26T05:40:03.959Z,656
2017-04-26T05:41:03.650Z,756
2017-04-26T05:42:03.703Z,932
2017-04-26T05:43:04.023Z,1088
2017-04-26T05:44:03.985Z,1868
2017-04-26T05:45:03.417Z,2564
2017-04-26T05:46:03.728Z,2584
2017-04-26T05:47:03.688Z,2496
2017-04-26T05:48:03.452Z,1848
2017-04-26T05:49:04.066Z,1032
2017-04-26T05:50:04.020Z,484
2017-04-26T05:51:04.077Z,384
2017-04-26T05:52:04.085Z,336
2017-04-26T05:53:04.036Z,344
2017-04-26T05:54:04.054Z,356
2017-04-26T05:55:04.053Z,368
2017-04-26T05:56:04.403Z,364
2017-04-26T05:57:03.439Z,372
2017-04-26T05:58:04.135Z,360
2017-04-26T05:59:04.130Z,380
2017-04-26T06:00:03.770Z,352
2017-04-26T06:01:04.143Z,336
2017-04-26T06:02:04.097Z,324
2017-04-26T06:03:04.108Z,308
2017-04-26T06:04:04.208Z,296
2017-04-26T06:05:04.116Z,296
2017-04-26T06:06:03.813Z,296
2017-04-26T06:07:04.176Z,296
2017-04-26T06:08:04.141Z,308
2017-04-26T06:09:04.140Z,348
2017-04-26T06:10:04.139Z,396
2017-04-26T06:11:03.566Z,476
2017-04-26T06:12:03.849Z,564
2017-04-26T06:13:04.167Z,620
2017-04-26T06:14:04.171Z,800
2017-04-26T06:15:03.912Z,1044
2017-04-26T06:16:03.921Z,1344
2017-04-26T06:17:03.876Z,1432
2017-04-26T06:18:04.194Z,1368
2017-04-26T06:19:03.937Z,1264
2017-04-26T06:20:04.203Z,1100
2017-04-26T06:21:04.216Z,1048
2017-04-26T06:22:04.284Z,1016
2017-04-26T06:23:03.965Z,928
2017-04-26T06:24:04.274Z,880
2017-04-26T06:25:04.287Z,940
2017-04-26T06:26:03.982Z,1100
2017-04-26T06:27:03.939Z,812
2017-04-26T06:28:04.310Z,784
2017-04-26T06:29:04.262Z,700
2017-04-26T06:30:04.272Z,672
2017-04-26T06:31:03.967Z,760
2017-04-26T06:32:03.665Z,884
2017-04-26T06:33:04.291Z,1068
2017-04-26T06:34:04.296Z,1028
2017-04-26T06:35:04.042Z,992
2017-04-26T06:36:04.309Z,860
2017-04-26T06:37:04.359Z,872
2017-04-26T06:38:04.319Z,808
2017-04-26T06:39:04.330Z,696
2017-04-26T06:40:04.426Z,632
2017-04-26T06:41:03.715Z,600
2017-04-26T06:42:04.395Z,600
2017-04-26T06:43:04.415Z,572
2017-04-26T06:44:03.787Z,540
2017-04-26T06:45:04.058Z,516
2017-04-26T06:46:03.445Z,496
2017-04-26T06:47:03.757Z,452
2017-04-26T06:48:04.385Z,420
2017-04-26T06:49:04.387Z,416
2017-04-26T06:50:04.468Z,416
2017-04-26T06:51:04.142Z,404
2017-04-26T06:52:03.837Z,396
2017-04-26T06:53:04.513Z,384
2017-04-26T06:54:04.468Z,368
2017-04-26T06:55:04.476Z,348
2017-04-26T06:56:04.513Z,324
2017-04-26T06:57:04.180Z,308
2017-04-26T06:58:04.185Z,304
2017-04-26T06:59:04.465Z,324
2017-04-26T07:00:04.461Z,348
2017-04-26T07:01:04.517Z,368
2017-04-26T07:02:04.259Z,384
2017-04-26T07:03:04.480Z,412
2017-04-26T07:04:04.485Z,428
2017-04-26T07:05:03.871Z,440
2017-04-26T07:06:04.237Z,464
2017-04-26T07:07:04.246Z,496
2017-04-26T07:08:04.510Z,544
2017-04-26T07:09:03.895Z,648
2017-04-26T07:10:04.518Z,736
2017-04-26T07:11:04.003Z,716
2017-04-26T07:12:04.631Z,668
2017-04-26T07:13:04.587Z,676
2017-04-26T07:14:04.596Z,744
2017-04-26T07:15:04.602Z,632
2017-04-26T07:16:04.250Z,592
2017-04-26T07:17:04.266Z,568
2017-04-26T07:18:04.568Z,524
2017-04-26T07:19:04.628Z,472
2017-04-26T07:20:04.592Z,400
2017-04-26T07:21:04.590Z,364
2017-04-26T07:22:04.653Z,332
2017-04-26T07:23:04.343Z,284
2017-04-26T07:24:04.347Z,248
2017-04-26T07:25:03.995Z,224
2017-04-26T07:26:04.623Z,220
2017-04-26T07:27:04.695Z,216
2017-04-26T07:28:04.372Z,232
2017-04-26T07:29:04.330Z,260
2017-04-26T07:30:04.338Z,284
2017-04-26T07:31:04.650Z,296
2017-04-26T07:32:04.676Z,316
2017-04-26T07:33:04.668Z,364
2017-04-26T07:34:04.725Z,416
2017-04-26T07:35:04.417Z,468
2017-04-26T07:36:04.730Z,508
2017-04-26T07:37:04.686Z,532
2017-04-26T07:38:04.797Z,548
2017-04-26T07:39:04.085Z,568
2017-04-26T07:40:04.705Z,580
2017-04-26T07:41:04.405Z,592
2017-04-26T07:42:04.818Z,624
2017-04-26T07:43:04.740Z,660
2017-04-26T07:44:04.159Z,692
2017-04-26T07:45:04.739Z,696
2017-04-26T07:46:04.748Z,704
2017-04-26T07:47:04.441Z,712
2017-04-26T07:48:04.445Z,736
2017-04-26T07:49:04.833Z,788
2017-04-26T07:50:04.767Z,844
2017-04-26T07:51:04.828Z,900
2017-04-26T07:52:04.788Z,888
2017-04-26T07:53:04.170Z,860
2017-04-26T07:54:04.794Z,840
2017-04-26T07:55:04.545Z,828
2017-04-26T07:56:04.807Z,816
2017-04-26T07:57:04.816Z,820
2017-04-26T07:58:04.821Z,820
2017-04-26T07:59:04.881Z,820
2017-04-26T08:00:04.891Z,820
2017-04-26T08:01:04.530Z,824
2017-04-26T08:02:04.897Z,832
2017-04-26T08:03:04.645Z,840
2017-04-26T08:04:04.603Z,860
2017-04-26T08:05:04.870Z,904
2017-04-26T08:06:04.564Z,932
2017-04-26T08:07:04.570Z,928
2017-04-26T08:08:04.887Z,904
2017-04-26T08:09:04.952Z,888
2017-04-26T08:10:05.006Z,884
2017-04-26T08:11:04.602Z,880
2017-04-26T08:12:04.915Z,868
2017-04-26T08:13:04.921Z,868
2017-04-26T08:14:04.719Z,876
2017-04-26T08:15:04.934Z,864
2017-04-26T08:16:04.683Z,844
2017-04-26T08:17:04.999Z,816
2017-04-26T08:18:05.057Z,836
2017-04-26T08:19:04.964Z,832
2017-04-26T08:20:04.660Z,832
2017-04-26T08:21:04.986Z,816
2017-04-26T08:22:05.083Z,800
2017-04-26T08:23:04.417Z,784
2017-04-26T08:24:04.688Z,788
2017-04-26T08:25:04.386Z,780
2017-04-26T08:26:05.062Z,904
2017-04-26T08:27:04.714Z,888
2017-04-26T08:28:04.712Z,884
2017-04-26T08:29:05.078Z,892
2017-04-26T08:30:04.410Z,932
2017-04-26T08:31:04.825Z,956
2017-04-26T08:32:05.038Z,948
2017-04-26T08:33:04.775Z,940
2017-04-26T08:34:04.776Z,972
2017-04-26T08:35:05.100Z,1008
2017-04-26T08:36:04.794Z,1076
2017-04-26T08:37:04.719Z,1204
2017-04-26T08:38:05.093Z,1380
2017-04-26T08:39:04.742Z,1480
2017-04-26T08:40:04.422Z,1580
2017-04-26T08:41:05.048Z,1524
2017-04-26T08:42:04.790Z,1456
2017-04-26T08:43:04.169Z,1492
2017-04-26T08:44:04.791Z,1564
2017-04-26T08:45:05.153Z,1636
2017-04-26T08:46:05.106Z,1724
2017-04-26T08:47:04.480Z,1752
2017-04-26T08:48:05.052Z,1772
2017-04-26T08:49:05.054Z,1772
2017-04-26T08:50:04.788Z,1720
2017-04-26T08:51:05.051Z,1748
2017-04-26T08:52:05.099Z,1628
2017-04-26T08:53:04.788Z,1444
2017-04-26T08:54:05.053Z,1372
2017-04-26T08:55:05.048Z,1228
2017-04-26T08:56:04.734Z,1140
2017-04-26T08:57:05.047Z,1184
2017-04-26T08:58:04.739Z,1180
2017-04-26T08:59:05.143Z,1144
2017-04-26T09:00:05.092Z,1088
2017-04-26T09:01:05.092Z,1104
2017-04-26T09:02:05.143Z,1156
2017-04-26T09:03:04.741Z,1348
2017-04-26T09:04:05.040Z,1612
2017-04-26T09:05:05.037Z,1708
2017-04-26T09:06:04.823Z,1444
2017-04-26T09:07:05.036Z,1516
2017-04-26T09:08:04.821Z,1616
2017-04-26T09:09:04.819Z,1572
2017-04-26T09:10:05.026Z,1640
2017-04-26T09:11:05.035Z,1796
2017-04-26T09:12:05.040Z,1992
2017-04-26T09:13:05.069Z,1924
2017-04-26T09:14:05.048Z,2012
2017-04-26T09:15:04.708Z,2140
2017-04-26T09:16:05.018Z,2148
2017-04-26T09:17:04.704Z,1936
2017-04-26T09:18:04.455Z,1836
2017-04-26T09:19:05.010Z,1904
2017-04-26T09:20:05.063Z,1828
2017-04-26T09:21:04.713Z,1756
2017-04-26T09:22:05.062Z,1616
2017-04-26T09:23:04.447Z,1484
2017-04-26T09:24:04.708Z,1444
2017-04-26T09:25:05.065Z,1436
2017-04-26T09:26:04.699Z,1408
2017-04-26T09:27:04.703Z,1332
2017-04-26T09:28:05.013Z,1280
2017-04-26T09:29:05.014Z,1276
2017-04-26T09:30:05.096Z,1236
2017-04-26T09:31:04.708Z,1192
2017-04-26T09:32:05.021Z,1136
2017-04-26T09:33:04.769Z,1076
2017-04-26T09:34:04.710Z,1032
2017-04-26T09:35:05.066Z,992
2017-04-26T09:36:05.030Z,940
2017-04-26T09:37:05.024Z,880
2017-04-26T09:38:04.716Z,812
2017-04-26T09:39:04.713Z,768
2017-04-26T09:40:04.713Z,732
2017-04-26T09:41:04.728Z,708
2017-04-26T09:42:04.721Z,692
2017-04-26T09:43:05.027Z,680
2017-04-26T09:44:05.082Z,688
2017-04-26T09:45:05.081Z,712
2017-04-26T09:46:05.031Z,744
2017-04-26T09:47:05.033Z,792
2017-04-26T09:48:05.031Z,836
2017-04-26T09:49:05.080Z,928
2017-04-26T09:50:05.031Z,1096
2017-04-26T09:51:04.413Z,1252
2017-04-26T09:52:04.772Z,1988
2017-04-26T09:53:05.083Z,2080
2017-04-26T09:54:05.082Z,1820
2017-04-26T09:55:04.416Z,2104
2017-04-26T09:56:05.038Z,1768
2017-04-26T09:57:05.337Z,1760
2017-04-26T09:58:05.038Z,1764
2017-04-26T09:59:04.732Z,1752
2017-04-26T10:00:04.782Z,1756
2017-04-26T10:01:05.087Z,1792
2017-04-26T10:02:05.039Z,1736
2017-04-26T10:03:05.038Z,1652
2017-04-26T10:04:05.035Z,1580
2017-04-26T10:05:05.086Z,1520
2017-04-26T10:06:04.728Z,1480
2017-04-26T10:07:05.135Z,1488
2017-04-26T10:08:04.725Z,1480
2017-04-26T10:09:05.037Z,1472
2017-04-26T10:10:05.086Z,1444
2017-04-26T10:11:05.089Z,1272
2017-04-26T10:12:05.047Z,1304
2017-04-26T10:13:05.137Z,1300
2017-04-26T10:15:07.070Z,1268
2017-04-26T10:15:16.892Z,1272
2017-04-26T10:16:16.845Z,1236
2017-04-26T10:17:17.163Z,1184
2017-04-26T10:18:16.854Z,1112
2017-04-26T10:19:16.883Z,1056
2017-04-26T10:20:16.911Z,1020
2017-04-26T10:21:17.180Z,1012
2017-04-26T10:22:17.185Z,1004
2017-04-26T10:23:17.239Z,988
2017-04-26T10:24:17.192Z,976
2017-04-26T10:25:17.201Z,972
2017-04-26T10:26:16.993Z,948
2017-04-26T10:27:17.209Z,920
2017-04-26T10:28:47.111Z,904
2017-04-26T10:29:16.932Z,900
2017-04-26T10:30:18.802Z,904
2017-04-26T10:31:16.925Z,908
2017-04-26T10:32:16.934Z,932
2017-04-26T10:33:17.255Z,980
2017-04-26T10:34:16.992Z,1056
2017-04-26T10:35:17.308Z,1136
2017-04-26T10:36:16.766Z,1216
2017-04-26T10:37:17.339Z,1320
2017-04-26T10:38:17.017Z,1924
2017-04-26T10:39:17.279Z,1996
2017-04-26T10:40:17.286Z,1732
2017-04-26T10:41:17.299Z,1572
2017-04-26T10:42:16.730Z,1928
2017-04-26T10:43:17.048Z,1752
2017-04-26T10:44:17.011Z,1556
2017-04-26T10:45:17.021Z,1556
2017-04-26T10:46:16.720Z,1560
2017-04-26T10:47:17.381Z,1576
2017-04-26T10:48:17.035Z,1524
2017-04-26T10:49:20.641Z,1508
2017-04-26T10:50:17.045Z,1404
2017-04-26T10:51:17.057Z,1368
2017-04-26T10:52:16.797Z,1360
2017-04-26T10:53:17.375Z,1384
2017-04-26T10:54:17.435Z,1472
2017-04-26T10:55:17.389Z,1444
2017-04-26T10:56:17.084Z,1860
2017-04-26T10:57:17.450Z,1996
2017-04-26T10:58:17.456Z,2048
2017-04-26T10:59:17.413Z,2080
2017-04-26T11:00:17.473Z,2076
2017-04-26T11:01:17.115Z,2076
2017-04-26T11:02:17.536Z,2048
2017-04-26T11:03:16.815Z,1988
2017-04-26T11:04:17.449Z,1900
2017-04-26T11:05:17.453Z,1816
2017-04-26T11:06:17.201Z,1744
2017-04-26T11:07:17.154Z,1688
2017-04-26T11:08:17.259Z,1644
2017-04-26T11:09:17.263Z,1568
2017-04-26T11:10:17.273Z,1572
2017-04-26T11:11:17.488Z,1536
2017-04-26T11:12:17.247Z,1484
2017-04-26T11:13:17.518Z,1480
2017-04-26T11:14:17.246Z,1496
2017-04-26T11:15:16.997Z,1464
2017-04-26T11:16:16.901Z,1464
2017-04-26T11:17:17.629Z,1456
2017-04-26T11:18:17.247Z,1424
2017-04-26T11:19:17.282Z,1376
2017-04-26T11:20:17.553Z,1348
2017-04-26T11:21:17.295Z,1348
2017-04-26T11:22:17.256Z,1228
2017-04-26T11:23:17.631Z,1360
2017-04-26T11:24:17.265Z,1368
2017-04-26T11:25:17.321Z,1380
2017-04-26T11:26:17.587Z,1380
2017-04-26T11:27:17.598Z,1372
2017-04-26T11:28:17.600Z,1372
2017-04-26T11:29:17.347Z,1364
2017-04-26T11:30:17.103Z,1364
2017-04-26T11:31:17.623Z,1360
2017-04-26T11:32:17.675Z,1344
2017-04-26T11:33:17.633Z,1356
2017-04-26T11:34:17.378Z,1304
2017-04-26T11:35:17.075Z,1344
2017-04-26T11:36:17.702Z,756
2017-04-26T11:37:17.345Z,808
2017-04-26T11:38:17.132Z,1268
2017-04-26T11:39:17.051Z,1364
2017-04-26T11:40:17.368Z,1384
2017-04-26T11:41:17.374Z,1416
2017-04-26T11:42:17.438Z,1000
2017-04-26T11:43:17.701Z,952
2017-04-26T11:44:17.707Z,1400
2017-04-26T11:45:17.450Z,1396
2017-04-26T11:46:17.774Z,1364
2017-04-26T11:47:17.416Z,1216
2017-04-26T11:48:17.781Z,1340
2017-04-26T11:49:17.476Z,1292
2017-04-26T11:50:17.440Z,828
2017-04-26T11:51:17.492Z,792
2017-04-26T11:52:17.494Z,756
2017-04-26T11:53:17.789Z,748
2017-04-26T11:54:17.771Z,760
2017-04-26T11:55:17.778Z,768
2017-04-26T11:56:17.469Z,784
2017-04-26T11:57:17.530Z,744
2017-04-26T11:58:17.482Z,716
2017-04-26T11:59:17.177Z,696
2017-04-26T12:00:17.236Z,668
2017-04-26T12:01:17.814Z,656
2017-04-26T12:02:17.511Z,632
2017-04-26T12:03:17.829Z,600
2017-04-26T12:04:17.527Z,584
2017-04-26T12:05:17.585Z,572
2017-04-26T12:06:17.593Z,544
2017-04-26T12:07:17.231Z,500
2017-04-26T12:08:17.908Z,472
2017-04-26T12:09:17.945Z,444
2017-04-26T12:10:17.916Z,416
2017-04-26T12:11:17.303Z,372
2017-04-26T12:12:17.881Z,340
2017-04-26T12:13:17.578Z,312
2017-04-26T12:14:17.635Z,300
2017-04-26T12:15:17.900Z,284
2017-04-26T12:16:17.622Z,280
2017-04-26T12:17:17.964Z,280
2017-04-26T12:18:17.407Z,296
2017-04-26T12:19:17.925Z,324
2017-04-26T12:20:17.935Z,368
2017-04-26T12:21:17.008Z,420
2017-04-26T12:22:17.639Z,472
2017-04-26T12:23:17.641Z,536
2017-04-26T12:24:17.746Z,596
2017-04-26T12:25:17.962Z,640
2017-04-26T12:26:17.759Z,676
2017-04-26T12:27:17.664Z,708
2017-04-26T12:28:18.033Z,748
2017-04-26T12:29:17.778Z,784
2017-04-26T12:30:17.993Z,816
2017-04-26T12:31:17.689Z,852
2017-04-26T12:32:17.706Z,876
2017-04-26T12:33:17.704Z,896
2017-04-26T12:34:17.814Z,916
2017-04-26T12:35:17.726Z,928
2017-04-26T12:36:18.048Z,936
2017-04-26T12:37:18.089Z,940
2017-04-26T12:38:18.097Z,960
2017-04-26T12:39:17.482Z,992
2017-04-26T12:40:17.489Z,1032
2017-04-26T12:41:18.110Z,1072
2017-04-26T12:42:17.866Z,1108
2017-04-26T12:43:17.765Z,1148
2017-04-26T12:44:17.819Z,1172
2017-04-26T12:45:17.780Z,1184
2017-04-26T12:46:17.786Z,1188
2017-04-26T12:47:17.790Z,1204
2017-04-26T12:48:17.541Z,1212
2017-04-26T12:49:18.217Z,1248
2017-04-26T12:50:17.818Z,1296
2017-04-26T12:51:17.817Z,1308
2017-04-26T12:52:17.827Z,1312
2017-04-26T12:53:18.186Z,1364
2017-04-26T12:54:17.672Z,1496
2017-04-26T12:55:18.150Z,1484
2017-04-26T12:56:17.533Z,1448
2017-04-26T12:57:17.238Z,1400
2017-04-26T12:58:17.862Z,1348
2017-04-26T12:59:17.863Z,1300
2017-04-26T13:00:17.923Z,1252
2017-04-26T13:01:17.938Z,1200
2017-04-26T13:02:17.938Z,1152
2017-04-26T13:03:17.895Z,1120
2017-04-26T13:04:17.639Z,1104
2017-04-26T13:05:17.905Z,1080
2017-04-26T13:06:17.908Z,1052
2017-04-26T13:07:18.277Z,1036
2017-04-26T13:08:17.924Z,1012
2017-04-26T13:09:17.929Z,984
2017-04-26T13:10:17.671Z,956
2017-04-26T13:11:18.325Z,952
2017-04-26T13:12:17.997Z,920
2017-04-26T13:13:18.002Z,912
2017-04-26T13:14:17.651Z,900
2017-04-26T13:15:17.966Z,908
2017-04-26T13:16:18.293Z,920
2017-04-26T13:17:17.677Z,920
2017-04-26T13:18:18.090Z,912
2017-04-26T13:19:18.310Z,912
2017-04-26T13:20:17.692Z,896
2017-04-26T13:21:18.372Z,852
2017-04-26T13:22:18.320Z,840
2017-04-26T13:23:17.764Z,824
2017-04-26T13:24:17.764Z,792
2017-04-26T13:25:18.079Z,780
2017-04-26T13:26:18.402Z,756
2017-04-26T13:27:18.095Z,748
2017-04-26T13:28:18.041Z,720
2017-04-26T13:29:18.485Z,704
2017-04-26T13:30:18.471Z,696
2017-04-26T13:31:18.398Z,684
2017-04-26T13:32:18.073Z,672
2017-04-26T13:33:18.130Z,664
2017-04-26T13:34:18.399Z,660
2017-04-26T13:35:18.126Z,648
2017-04-26T13:36:18.147Z,652
2017-04-26T13:37:18.105Z,648
2017-04-26T13:38:18.480Z,648
2017-04-26T13:39:17.810Z,656
2017-04-26T13:40:18.123Z,660
2017-04-26T13:41:18.139Z,648
2017-04-26T13:42:18.499Z,644
2017-04-26T13:43:18.455Z,656
2017-04-26T13:44:18.201Z,664
2017-04-26T13:45:18.161Z,664
2017-04-26T13:46:17.905Z,676
2017-04-26T13:47:18.174Z,604
2017-04-26T13:48:18.176Z,632
2017-04-26T13:49:18.499Z,644
2017-04-26T13:50:18.505Z,640
2017-04-26T13:51:18.195Z,612
2017-04-26T13:52:18.511Z,676
2017-04-26T13:53:18.517Z,700
2017-04-26T13:54:18.266Z,800
2017-04-26T13:55:18.222Z,820
2017-04-26T13:56:18.278Z,732
2017-04-26T13:57:18.599Z,632
2017-04-26T13:58:17.978Z,560